METAR Data
IDs: Format: Raw Decoded Include TAF

Data at: 1434 UTC 11 Dec 2018

K4R5 111415Z AUTO 22003KT 4SM BR CLR M09/M10 A3001 RMK AO2 T10921101
K4R5 111355Z AUTO 00000KT 4SM BR CLR M11/M13 A3001 RMK AO2 T11141127
K4R5 111335Z AUTO 00000KT 4SM BR CLR M11/M13 A3000 RMK AO2 T11141129
K4R5 111315Z AUTO 21003KT 5SM BR CLR M11/M12 A3000 RMK AO2 T11111124
K4R5 111255Z AUTO 21003KT 5SM BR CLR M10/M11 A3000 RMK AO2 T10991108
K4R5 111235Z AUTO 00000KT 7SM CLR M11/M12 A3000 RMK AO2 T11131125
K4R5 111215Z AUTO 24004KT 5SM BR CLR M11/M12 A2999 RMK AO2 T11111122
K4R5 111155Z AUTO 00000KT 5SM BR CLR M10/M11 A2999 RMK AO2 T10971106
K4R5 111135Z AUTO 00000KT 5SM BR SCT015 M08/M09 A2998 RMK AO2 T10811091
K4R5 111115Z AUTO 22004KT 7SM BKN017 M09/M10 A2998 RMK AO2 T10891098
K4R5 111055Z AUTO 00000KT 5SM BR OVC017 M09/M10 A2998 RMK AO2 T10871096
K4R5 111035Z AUTO 00000KT 7SM BKN017 M07/M08 A2997 RMK AO2 T10731085
K4R5 111015Z AUTO 23004KT 5SM BR CLR M08/M09 A2997 RMK AO2 T10791088
K4R5 110955Z AUTO 00000KT 5SM BR CLR M08/M09 A2997 RMK AO2 T10771088
K4R5 110935Z AUTO 23003KT 7SM CLR M06/M07 A2997 RMK AO2 T10601074
K4R5 110915Z AUTO 24004KT 7SM CLR M06/M07 A2997 RMK AO2 T10571071
K4R5 110855Z AUTO 22003KT 7SM CLR M06/M07 A2997 RMK AO2 T10621074
K4R5 110835Z AUTO 00000KT 7SM SCT021 M05/M07 A2997 RMK AO2 T10551071
K4R5 110815Z AUTO 27005KT 10SM BKN021 M05/M07 A2996 RMK AO2 T10501071
K4R5 110755Z AUTO 25003KT 7SM BKN021 M05/M07 A2996 RMK AO2 T10511070
K4R5 110735Z AUTO 24005KT 7SM BKN023 M05/M07 A2995 RMK AO2 T10501070
K4R5 110715Z AUTO 23007KT 7SM OVC023 M05/M07 A2995 RMK AO2 T10471067
K4R5 110655Z AUTO 24009KT 10SM OVC023 M04/M07 A2995 RMK AO2 T10451067
K4R5 110635Z AUTO 24005KT 10SM OVC023 M04/M07 A2994 RMK AO2 T10411066
K4R5 110615Z AUTO 24003KT 10SM OVC023 M04/M06 A2995 RMK AO2 T10411065
K4R5 110555Z AUTO 24004KT 10SM BKN023 M04/M06 A2995 RMK AO2 T10441065
K4R5 110535Z AUTO 24004KT 7SM SCT025 M05/M07 A2995 RMK AO2 T10501068
K4R5 110515Z AUTO 25005KT 7SM CLR M05/M07 A2994 RMK AO2 T10501067
K4R5 110455Z AUTO 25005KT 7SM CLR M05/M07 A2994 RMK AO2 T10491067
K4R5 110435Z AUTO 25005KT 7SM CLR M05/M07 A2994 RMK AO2 T10511069
K4R5 110415Z AUTO 24004KT 7SM CLR M05/M07 A2994 RMK AO2 T10541072
K4R5 110355Z AUTO 22003KT 7SM CLR M05/M07 A2994 RMK AO2 T10521072
K4R5 110335Z AUTO 22004KT 10SM CLR M05/M07 A2994 RMK AO2 T10511072
K4R5 110315Z AUTO 22005KT 10SM CLR M05/M07 A2994 RMK AO2 T10501072
K4R5 110255Z AUTO 21005KT 10SM CLR M05/M07 A2994 RMK AO2 T10501074
K4R5 110235Z AUTO 22007KT 10SM CLR M05/M07 A2994 RMK AO2 T10501074
K4R5 110215Z AUTO 22008G15KT 10SM CLR M05/M07 A2994 RMK AO2 T10471075
K4R5 110155Z AUTO 22007KT 170V260 10SM CLR M05/M07 A2995 RMK AO2 T10461075
K4R5 110135Z AUTO 22007G14KT 10SM CLR M04/M07 A2995 RMK AO2 T10441075
K4R5 110115Z AUTO 22008G15KT 10SM CLR M04/M08 A2995 RMK AO2 T10401076
K4R5 110055Z AUTO 23008G14KT 10SM CLR M04/M08 A2995 RMK AO2 T10361076
K4R5 110035Z AUTO 23009G14KT 190V260 10SM CLR M03/M08 A2994 RMK AO2 T10321076
K4R5 110015Z AUTO 23010G17KT 10SM CLR M03/M08 A2993 RMK AO2 T10281076
K4R5 102355Z AUTO 24014G19KT 10SM CLR M02/M07 A2993 RMK AO2 T10251075
K4R5 102335Z AUTO 24010G19KT 10SM CLR M02/M08 A2992 RMK AO2 T10201076
K4R5 102315Z AUTO 24012G19KT 200V260 10SM SCT110 M02/M08 A2992 RMK AO2 T10171076
K4R5 102255Z AUTO 23014G20KT 10SM BKN110 M01/M08 A2992 RMK AO2 T10151076
K4R5 102235Z AUTO 23010G18KT 10SM BKN120 M01/M08 A2991 RMK AO2 T10101076
K4R5 102215Z AUTO 24008G15KT 10SM BKN120 00/M07 A2990 RMK AO2 T10051071
K4R5 102155Z AUTO 22008KT 10SM BKN110 00/M06 A2990 RMK AO2 T10021065
K4R5 102135Z AUTO 21006KT 10SM OVC110 00/M07 A2990 RMK AO2 T00001066
K4R5 102115Z AUTO 22006KT 10SM BKN110 00/M06 A2991 RMK AO2 T00021065
K4R5 102055Z AUTO 21006KT 10SM BKN110 01/M06 A2991 RMK AO2 T00061063
K4R5 102035Z AUTO 22006KT 10SM BKN110 01/M07 A2992 RMK AO2 T00081067
K4R5 102015Z AUTO 22005KT 10SM SCT110 01/M06 A2992 RMK AO2 T00071060
K4R5 101955Z AUTO 22009KT 10SM SCT110 01/M06 A2992 RMK AO2 T00081064
K4R5 101935Z AUTO 22008KT 10SM BKN110 01/M06 A2993 RMK AO2 T00081063
K4R5 101915Z AUTO 21008KT 10SM SCT110 01/M07 A2994 RMK AO2 T00051066
K4R5 101855Z AUTO 23006KT 10SM CLR 00/M06 A2995 RMK AO2 T00031064
K4R5 101835Z AUTO 22007KT 180V240 10SM CLR 00/M07 A2995 RMK AO2 T10011067
K4R5 101815Z AUTO 22008G16KT 160V240 10SM CLR M01/M07 A2995 RMK AO2 T10151066
K4R5 101755Z AUTO 20010G14KT 160V230 10SM CLR M01/M07 A2997 RMK AO2 T10141070
K4R5 101735Z AUTO 21006KT 10SM CLR M01/M07 A2998 RMK AO2 T10151071
K4R5 101715Z AUTO 22007KT 180V240 10SM CLR M02/M08 A3000 RMK AO2 T10241079
K4R5 101655Z AUTO 22005KT 10SM CLR M03/M08 A3001 RMK AO2 T10311079
K4R5 101635Z AUTO 21006KT 10SM CLR M04/M08 A3003 RMK AO2 T10381083
K4R5 101615Z AUTO 19004KT 10SM CLR M05/M08 A3003 RMK AO2 T10461085
K4R5 101555Z AUTO 20004KT 10SM CLR M05/M08 A3003 RMK AO2 T10501085
K4R5 101535Z AUTO 21006G14KT 10SM CLR M05/M09 A3003 RMK AO2 T10551086
K4R5 101515Z AUTO 22005KT 10SM CLR M06/M09 A3003 RMK AO2 T10581090
K4R5 101455Z AUTO 20006KT 10SM CLR M06/M09 A3004 RMK AO2 T10601090
K4R5 101435Z AUTO 21007KT 170V230 10SM CLR M06/M09 A3004 RMK AO2 T10581088
K4R5 101415Z AUTO 21006G15KT 10SM CLR M06/M09 A3004 RMK AO2 T10611090
K4R5 101355Z AUTO 21007KT 10SM CLR M06/M09 A3005 RMK AO2 T10611091
K4R5 101335Z AUTO 22006KT 10SM CLR M06/M09 A3005 RMK AO2 T10631091
K4R5 101315Z AUTO 21005KT 10SM CLR M06/M09 A3006 RMK AO2 T10641090
K4R5 101255Z AUTO 20005KT 10SM CLR M06/M09 A3006 RMK AO2 T10651087
K4R5 101235Z AUTO 20004KT 10SM CLR M06/M09 A3006 RMK AO2 T10621086
K4R5 101215Z AUTO 21005KT 10SM CLR M06/M08 A3006 RMK AO2 T10611083
K4R5 101155Z AUTO 21004KT 10SM CLR M06/M08 A3006 RMK AO2 T10601080
K4R5 101135Z AUTO 21005KT 10SM CLR M06/M08 A3007 RMK AO2 T10611080
K4R5 101115Z AUTO 21003KT 7SM CLR M06/M08 A3007 RMK AO2 T10631081
K4R5 101055Z AUTO 21003KT 7SM CLR M06/M08 A3008 RMK AO2 T10631080
K4R5 101035Z AUTO 21004KT 7SM CLR M06/M08 A3009 RMK AO2 T10621080
K4R5 101015Z AUTO 00000KT 10SM CLR M06/M08 A3009 RMK AO2 T10601080
K4R5 100955Z AUTO 21005KT 10SM CLR M06/M08 A3010 RMK AO2 T10601080
K4R5 100935Z AUTO 21004KT 10SM CLR M06/M08 A3011 RMK AO2 T10601080
K4R5 100915Z AUTO 20003KT 10SM CLR M06/M08 A3011 RMK AO2 T10571078
K4R5 100855Z AUTO 21004KT 10SM CLR M06/M08 A3013 RMK AO2 T10561077
K4R5 100835Z AUTO 20004KT 10SM CLR M06/M08 A3014 RMK AO2 T10561076
K4R5 100815Z AUTO 20004KT 10SM CLR M05/M07 A3015 RMK AO2 T10531075
K4R5 100755Z AUTO 23005KT 10SM CLR M05/M07 A3015 RMK AO2 T10511073
K4R5 100735Z AUTO 23006KT 10SM CLR M05/M07 A3015 RMK AO2 T10501073
K4R5 100715Z AUTO 23007KT 10SM CLR M05/M07 A3015 RMK AO2 T10461071
K4R5 100655Z AUTO 22006KT 10SM CLR M05/M07 A3015 RMK AO2 T10461070
K4R5 100635Z AUTO 23005KT 10SM CLR M04/M07 A3015 RMK AO2 T10451071
K4R5 100615Z AUTO 22004KT 10SM CLR M04/M07 A3016 RMK AO2 T10431070
K4R5 100555Z AUTO 22005KT 10SM CLR M04/M07 A3016 RMK AO2 T10431069
K4R5 100535Z AUTO 21003KT 10SM CLR M04/M07 A3016 RMK AO2 T10421070
K4R5 100515Z AUTO 00000KT 10SM CLR M04/M07 A3017 RMK AO2 T10411070
K4R5 100455Z AUTO 22003KT 10SM CLR M04/M07 A3018 RMK AO2 T10421070
K4R5 100435Z AUTO 21003KT 10SM CLR M04/M07 A3018 RMK AO2 T10411069
K4R5 100415Z AUTO 23003KT 10SM CLR M03/M07 A3019 RMK AO2 T10351067
K4R5 100355Z AUTO 23004KT 10SM CLR M03/M07 A3019 RMK AO2 T10331066
K4R5 100335Z AUTO 24005KT 10SM CLR M03/M07 A3019 RMK AO2 T10351067
K4R5 100315Z AUTO 23005KT 10SM CLR M03/M07 A3019 RMK AO2 T10331067
K4R5 100255Z AUTO 23004KT 10SM CLR M03/M07 A3020 RMK AO2 T10331068
K4R5 100235Z AUTO 22004KT 10SM CLR M04/M07 A3020 RMK AO2 T10361069